Time;durP1;ratioP1;P1;durP2;ratioP2;P2;SDS_P1;SDS_P2;PMS_P1;PMS_P2;Temp;Humidity;BMP_temperature;BMP_pressure;BME280_temperature;BME280_humidity;BME280_pressure;Samples;Min_cycle;Max_cycle;Signal;HPM_P1;HPM_P2
2020/12/03 00:00:33;;;;;;;45.43;23.43;;;2.20;99.90;;;;;;5134111;28;20483;-27
2020/12/03 00:03:04;;;;;;;43.20;26.80;;;2.00;99.90;;;;;;5128380;28;20457;-27
2020/12/03 00:05:31;;;;;;;35.53;23.23;;;2.00;99.90;;;;;;5119904;28;20434;-26
2020/12/03 00:07:59;;;;;;;38.83;24.00;;;2.00;99.90;;;;;;5133338;27;20546;-27
2020/12/03 00:10:27;;;;;;;42.90;26.47;;;2.00;99.90;;;;;;5115764;28;20746;-27
2020/12/03 00:13:08;;;;;;;44.23;26.97;;;2.00;99.90;;;;;;5125961;27;20670;-27
2020/12/03 00:15:34;;;;;;;39.60;25.80;;;2.10;99.90;;;;;;5138070;27;20922;-27
2020/12/03 00:18:02;;;;;;;43.93;25.83;;;2.00;99.90;;;;;;5137716;27;20449;-27
2020/12/03 00:20:31;;;;;;;44.47;24.53;;;2.10;99.90;;;;;;5136973;27;20545;-27
2020/12/03 00:22:57;;;;;;;44.13;23.87;;;2.20;99.90;;;;;;5137379;27;20465;-26
2020/12/03 00:25:24;;;;;;;45.60;24.50;;;2.20;99.90;;;;;;5133980;27;20708;-26
2020/12/03 00:27:53;;;;;;;44.87;24.40;;;2.20;99.90;;;;;;5117471;28;20443;-27
2020/12/03 00:30:22;;;;;;;45.40;24.43;;;2.20;99.90;;;;;;5116363;28;21232;-27
2020/12/03 00:32:51;;;;;;;41.03;25.33;;;2.20;99.90;;;;;;5116098;28;20438;-27
2020/12/03 00:35:20;;;;;;;38.40;23.80;;;2.10;99.90;;;;;;5114826;28;20876;-27
2020/12/03 00:37:49;;;;;;;42.00;25.13;;;2.10;99.90;;;;;;5115477;28;20541;-26
2020/12/03 00:40:16;;;;;;;35.57;22.13;;;2.00;99.90;;;;;;5110014;28;21166;-27
2020/12/03 00:42:44;;;;;;;46.23;26.70;;;1.90;99.90;;;;;;5105866;28;20865;-27
2020/12/03 00:45:14;;;;;;;36.93;23.90;;;1.90;99.90;;;;;;5096602;28;20846;-27
2020/12/03 00:47:43;;;;;;;49.43;25.63;;;1.90;99.90;;;;;;5096071;28;20478;-27
2020/12/03 00:50:12;;;;;;;48.20;24.90;;;1.90;99.90;;;;;;5101999;28;20450;-27
2020/12/03 00:52:40;;;;;;;38.63;24.60;;;2.00;99.90;;;;;;5097813;28;20439;-27
2020/12/03 00:55:09;;;;;;;39.57;23.60;;;2.10;99.90;;;;;;5077693;28;20468;-29
2020/12/03 00:57:37;;;;;;;47.40;26.57;;;2.10;99.90;;;;;;5095435;28;20546;-27
2020/12/03 01:00:07;;;;;;;39.33;24.30;;;2.20;99.90;;;;;;5095989;28;20442;-27
2020/12/03 01:02:33;;;;;;;46.03;24.90;;;2.30;99.90;;;;;;5116554;28;20864;-26
2020/12/03 01:05:03;;;;;;;40.23;25.27;;;2.30;99.90;;;;;;5116849;28;20720;-27
2020/12/03 01:07:31;;;;;;;44.90;24.77;;;2.20;99.90;;;;;;5114940;28;20542;-27
2020/12/03 01:09:58;;;;;;;44.63;25.50;;;2.20;99.90;;;;;;5113275;28;20515;-27
2020/12/03 01:12:24;;;;;;;41.30;23.57;;;2.20;99.90;;;;;;5115843;27;20470;-27
2020/12/03 01:14:51;;;;;;;42.80;25.00;;;2.20;99.90;;;;;;5135479;27;20481;-27
2020/12/03 01:17:18;;;;;;;44.70;25.00;;;2.20;99.90;;;;;;5130886;27;20479;-27
2020/12/03 01:19:45;;;;;;;46.27;24.50;;;2.20;99.90;;;;;;5122991;27;20545;-28
2020/12/03 01:22:12;;;;;;;45.23;24.23;;;2.20;99.90;;;;;;5135223;27;20438;-27
2020/12/03 01:24:41;;;;;;;41.93;23.80;;;2.30;99.90;;;;;;5133759;27;20441;-27
2020/12/03 01:27:09;;;;;;;46.23;26.27;;;2.30;99.90;;;;;;5123444;27;20468;-28
2020/12/03 01:29:37;;;;;;;47.37;27.60;;;2.30;99.90;;;;;;5135733;27;20503;-27
2020/12/03 01:32:05;;;;;;;42.13;24.70;;;2.40;99.90;;;;;;5135715;27;20438;-28
2020/12/03 01:34:32;;;;;;;42.33;23.63;;;2.40;99.90;;;;;;5134617;27;20557;-28
2020/12/03 01:37:00;;;;;;;40.80;24.30;;;2.50;99.90;;;;;;5134930;27;20474;-28
2020/12/03 01:39:28;;;;;;;39.90;26.63;;;2.50;99.90;;;;;;5117741;27;20491;-28
2020/12/03 01:41:56;;;;;;;36.93;24.27;;;2.50;99.90;;;;;;5114244;28;20447;-29
2020/12/03 01:44:43;;;;;;;38.50;23.37;;;2.50;99.90;;;;;;5119195;27;20442;-27
2020/12/03 01:47:19;;;;;;;40.10;23.77;;;2.50;99.90;;;;;;5134238;27;20710;-27
2020/12/03 01:49:47;;;;;;;43.97;23.30;;;2.50;99.90;;;;;;5135767;27;20441;-28
2020/12/03 01:52:14;;;;;;;42.17;25.47;;;2.60;99.90;;;;;;5120856;27;20460;-27
2020/12/03 01:54:42;;;;;;;54.60;25.17;;;2.60;99.90;;;;;;5135271;27;20446;-28
2020/12/03 01:57:52;;;;;;;40.27;25.07;;;2.60;99.90;;;;;;5134233;27;20731;-27
2020/12/03 02:00:25;;;;;;;43.00;24.43;;;2.60;99.90;;;;;;5096257;27;20577;-29
2020/12/03 02:02:53;;;;;;;38.60;24.50;;;2.60;99.90;;;;;;5115343;28;20443;-30
2020/12/03 02:05:23;;;;;;;40.20;26.60;;;2.60;99.90;;;;;;5119380;27;20438;-27
2020/12/03 02:07:51;;;;;;;46.20;25.83;;;2.70;99.90;;;;;;5118523;27;20439;-27
2020/12/03 02:10:23;;;;;;;40.27;25.63;;;2.70;99.90;;;;;;5114217;28;20435;-27
2020/12/03 02:12:51;;;;;;;45.07;25.43;;;2.70;99.90;;;;;;5130684;27;20442;-27
2020/12/03 02:15:20;;;;;;;41.20;25.37;;;2.70;99.90;;;;;;5130364;27;20483;-27
2020/12/03 02:17:47;;;;;;;47.47;25.97;;;2.70;99.90;;;;;;5114999;28;20839;-27
2020/12/03 02:20:21;;;;;;;45.37;25.80;;;2.70;99.90;;;;;;5115907;27;20503;-27
2020/12/03 02:22:48;;;;;;;40.07;24.00;;;2.70;99.90;;;;;;5133498;27;20537;-26
2020/12/03 02:25:19;;;;;;;48.53;28.00;;;2.70;99.90;;;;;;5120428;27;20919;-27
2020/12/03 02:27:46;;;;;;;50.33;26.00;;;2.70;99.90;;;;;;5107716;28;20488;-27
2020/12/03 02:30:14;;;;;;;45.60;25.90;;;2.70;99.90;;;;;;5114797;28;20471;-27
2020/12/03 02:32:42;;;;;;;43.57;26.40;;;2.70;99.90;;;;;;5111253;28;20557;-27
2020/12/03 02:35:13;;;;;;;44.53;26.27;;;2.70;99.90;;;;;;5113697;28;20458;-26
2020/12/03 02:37:42;;;;;;;40.47;23.70;;;2.70;99.90;;;;;;5112575;28;20443;-27
2020/12/03 02:40:10;;;;;;;42.13;26.07;;;2.70;99.90;;;;;;5112699;28;20466;-26
2020/12/03 02:42:38;;;;;;;41.77;25.80;;;2.70;99.90;;;;;;5114093;28;20748;-27
2020/12/03 02:45:06;;;;;;;39.13;22.67;;;2.70;99.90;;;;;;5114007;28;20439;-27
2020/12/03 02:47:33;;;;;;;42.33;25.00;;;2.70;99.90;;;;;;5112987;28;20539;-27
2020/12/03 02:50:00;;;;;;;41.47;25.07;;;2.70;99.90;;;;;;5119615;27;20529;-26
2020/12/03 02:52:28;;;;;;;41.20;24.67;;;2.60;99.90;;;;;;5118766;27;20541;-27
2020/12/03 02:54:56;;;;;;;42.53;25.70;;;2.60;99.90;;;;;;5113541;28;20450;-27
2020/12/03 02:57:23;;;;;;;49.03;27.43;;;2.60;99.90;;;;;;5120920;27;20438;-27
2020/12/03 02:59:52;;;;;;;39.93;25.57;;;2.60;99.90;;;;;;5133828;27;20433;-27
2020/12/03 03:02:19;;;;;;;47.40;23.63;;;2.50;99.90;;;;;;5114847;28;20751;-27
2020/12/03 03:04:45;;;;;;;39.53;24.70;;;2.50;99.90;;;;;;5116670;27;20516;-27
2020/12/03 03:07:13;;;;;;;41.37;25.93;;;2.40;99.90;;;;;;5116556;28;20441;-27
2020/12/03 03:09:40;;;;;;;44.07;26.80;;;2.50;99.90;;;;;;5131862;28;20553;-27
2020/12/03 03:12:08;;;;;;;37.80;23.47;;;2.60;99.90;;;;;;5133426;28;20474;-26
2020/12/03 03:14:36;;;;;;;40.90;25.40;;;2.60;99.90;;;;;;5130804;28;20525;-28
2020/12/03 03:17:03;;;;;;;41.70;25.40;;;2.60;99.90;;;;;;5126442;28;21172;-27
2020/12/03 03:19:31;;;;;;;46.47;26.90;;;2.60;99.90;;;;;;5132654;28;20442;-27
2020/12/03 03:21:59;;;;;;;46.60;24.07;;;2.60;99.90;;;;;;5109603;27;20458;-27
2020/12/03 03:24:27;;;;;;;45.30;25.43;;;2.60;99.90;;;;;;5113799;28;20863;-27
2020/12/03 03:26:54;;;;;;;44.43;26.13;;;2.60;99.90;;;;;;5112162;28;20439;-27
2020/12/03 03:29:21;;;;;;;44.80;25.23;;;2.50;99.90;;;;;;5121275;28;20434;-26
2020/12/03 03:31:48;;;;;;;45.93;24.60;;;2.50;99.90;;;;;;5120302;28;20534;-26
2020/12/03 03:34:15;;;;;;;43.97;25.57;;;2.40;99.90;;;;;;5112084;28;20442;-27
2020/12/03 03:36:41;;;;;;;49.70;26.33;;;2.40;99.90;;;;;;5112685;28;20781;-27
2020/12/03 03:39:12;;;;;;;38.23;24.27;;;2.40;99.90;;;;;;5111919;28;20427;-27
2020/12/03 03:41:40;;;;;;;47.90;26.20;;;2.40;99.90;;;;;;5122248;28;20856;-26
2020/12/03 03:44:08;;;;;;;49.27;26.83;;;2.40;99.90;;;;;;5130932;27;20441;-27
2020/12/03 03:46:35;;;;;;;49.73;27.33;;;2.30;99.90;;;;;;5137583;27;20859;-27
2020/12/03 03:49:03;;;;;;;40.80;23.83;;;2.30;99.90;;;;;;5137960;27;20464;-27
2020/12/03 03:51:31;;;;;;;44.97;26.40;;;2.30;99.90;;;;;;5124720;27;20492;-26
2020/12/03 03:53:58;;;;;;;48.37;26.23;;;2.40;99.90;;;;;;5119222;27;21202;-27
2020/12/03 03:56:27;;;;;;;43.30;26.03;;;2.40;99.90;;;;;;5138285;27;20509;-27
2020/12/03 03:58:53;;;;;;;48.73;28.07;;;2.50;99.90;;;;;;5116925;28;20458;-27
2020/12/03 04:01:20;;;;;;;48.33;25.57;;;2.50;99.90;;;;;;5115093;27;20812;-27
2020/12/03 04:03:49;;;;;;;48.30;26.40;;;2.60;99.90;;;;;;5116684;28;20508;-27
2020/12/03 04:06:15;;;;;;;39.90;23.83;;;2.50;99.90;;;;;;5116575;28;20495;-26
2020/12/03 04:08:43;;;;;;;42.40;25.77;;;2.50;99.90;;;;;;5115922;28;20446;-27
2020/12/03 04:11:09;;;;;;;43.90;27.23;;;2.60;99.90;;;;;;5113299;28;20443;-27
2020/12/03 04:13:37;;;;;;;45.03;26.30;;;2.60;99.90;;;;;;5101801;28;20439;-27
2020/12/03 04:16:04;;;;;;;41.37;26.27;;;2.60;99.90;;;;;;5116360;28;20796;-26
2020/12/03 04:18:32;;;;;;;47.80;25.97;;;2.60;99.90;;;;;;5115577;28;20525;-27
2020/12/03 04:21:04;;;;;;;44.17;25.30;;;2.60;99.90;;;;;;5116921;28;20438;-27
2020/12/03 04:23:31;;;;;;;45.93;25.70;;;2.70;99.90;;;;;;5095308;28;20440;-27
2020/12/03 04:25:57;;;;;;;46.00;25.93;;;2.70;99.90;;;;;;5096513;28;20530;-26
2020/12/03 04:28:25;;;;;;;48.83;24.50;;;2.70;99.90;;;;;;5100916;28;20452;-27
2020/12/03 04:30:52;;;;;;;42.17;25.10;;;2.70;99.90;;;;;;5098896;28;20454;-27
2020/12/03 04:33:19;;;;;;;42.87;25.90;;;2.70;99.90;;;;;;5114818;28;20465;-27
2020/12/03 04:35:47;;;;;;;44.97;24.97;;;2.70;99.90;;;;;;5114762;28;20467;-27
2020/12/03 04:38:16;;;;;;;44.07;25.67;;;2.70;99.90;;;;;;5114338;28;20495;-27
2020/12/03 04:40:44;;;;;;;43.30;24.60;;;2.70;99.90;;;;;;5094651;28;20869;-26
2020/12/03 04:43:21;;;;;;;42.30;26.57;;;2.70;99.90;;;;;;5128065;27;20494;-27
2020/12/03 04:45:53;;;;;;;51.30;28.13;;;2.60;99.90;;;;;;5134950;27;20448;-27
2020/12/03 04:48:35;;;;;;;42.07;24.83;;;2.60;99.90;;;;;;5132429;27;20445;-26
2020/12/03 04:51:14;;;;;;;40.17;26.13;;;2.60;99.90;;;;;;5135395;27;20452;-27
2020/12/03 04:53:55;;;;;;;44.53;27.57;;;2.60;99.90;;;;;;5129000;27;20450;-27
2020/12/03 04:56:29;;;;;;;43.23;26.70;;;2.60;99.90;;;;;;5120875;27;20684;-26
2020/12/03 04:59:10;;;;;;;44.03;25.30;;;2.60;99.90;;;;;;5132083;27;20536;-27
2020/12/03 05:02:17;;;;;;;45.70;26.57;;;2.60;99.90;;;;;;5135191;27;20453;-27
2020/12/03 05:04:56;;;;;;;38.10;23.80;;;2.60;99.90;;;;;;5134695;27;20457;-26
2020/12/03 05:07:28;;;;;;;44.80;25.93;;;2.70;99.90;;;;;;5122346;27;20608;-27
2020/12/03 05:10:02;;;;;;;46.27;25.37;;;2.60;99.90;;;;;;5128513;27;20441;-27
2020/12/03 05:12:33;;;;;;;47.03;23.87;;;2.50;99.90;;;;;;5134471;27;20862;-27
2020/12/03 05:15:06;;;;;;;44.37;24.70;;;2.60;99.90;;;;;;5115078;27;20533;-27
2020/12/03 05:17:56;;;;;;;44.97;26.60;;;2.60;99.90;;;;;;5105457;28;20538;-27
2020/12/03 05:20:35;;;;;;;49.13;25.97;;;2.60;99.90;;;;;;5133311;27;20446;-28
2020/12/03 05:23:12;;;;;;;44.73;25.90;;;2.60;99.90;;;;;;5133308;27;20515;-27
2020/12/03 05:25:40;;;;;;;47.47;23.77;;;2.60;99.90;;;;;;5133207;27;20438;-27
2020/12/03 05:28:29;;;;;;;49.37;25.50;;;2.60;99.90;;;;;;5129895;27;20525;-27
2020/12/03 05:31:06;;;;;;;40.80;24.63;;;2.50;99.90;;;;;;5117766;27;20442;-28
2020/12/03 05:33:34;;;;;;;43.67;25.47;;;2.50;99.90;;;;;;5129025;27;20500;-26
2020/12/03 05:36:02;;;;;;;46.93;25.43;;;2.50;99.90;;;;;;5131069;27;20463;-27
2020/12/03 05:38:30;;;;;;;49.30;27.13;;;2.50;99.90;;;;;;5125427;27;20891;-28
2020/12/03 05:41:01;;;;;;;44.07;24.23;;;2.60;99.90;;;;;;5109344;28;20439;-27
2020/12/03 05:43:30;;;;;;;46.27;25.40;;;2.60;99.90;;;;;;5120910;27;20438;-27
2020/12/03 05:45:57;;;;;;;48.80;26.60;;;2.70;99.90;;;;;;5130157;27;20918;-27
2020/12/03 05:48:24;;;;;;;48.17;25.00;;;2.70;99.90;;;;;;5119706;27;20447;-26
2020/12/03 05:50:54;;;;;;;42.07;24.70;;;2.70;99.90;;;;;;5106922;28;20442;-27
2020/12/03 05:53:24;;;;;;;43.53;25.20;;;2.70;99.90;;;;;;5107665;28;20499;-27
2020/12/03 05:55:50;;;;;;;43.77;24.17;;;2.70;99.90;;;;;;5124034;27;20494;-27
2020/12/03 05:58:22;;;;;;;49.07;27.20;;;2.60;99.90;;;;;;5142374;27;20583;-28
2020/12/03 06:00:51;;;;;;;52.30;27.23;;;2.70;99.90;;;;;;5145506;27;20441;-27
2020/12/03 06:03:58;;;;;;;46.73;25.13;;;2.70;99.90;;;;;;5149562;27;20430;-27
2020/12/03 06:07:02;;;;;;;53.50;27.07;;;2.70;99.90;;;;;;5122049;27;20465;-27
2020/12/03 06:09:45;;;;;;;44.60;25.30;;;2.70;99.90;;;;;;5127433;27;21129;-27
2020/12/03 06:12:25;;;;;;;52.10;27.80;;;2.70;99.90;;;;;;5126079;27;20453;-27
2020/12/03 06:15:20;;;;;;;48.70;26.33;;;2.70;99.90;;;;;;5130484;27;20463;-27
2020/12/03 06:18:16;;;;;;;50.73;27.60;;;2.70;99.90;;;;;;5137378;27;20440;-27
2020/12/03 06:21:06;;;;;;;45.17;26.60;;;2.70;99.90;;;;;;5147065;27;20433;-27
2020/12/03 06:23:48;;;;;;;46.50;26.50;;;2.70;99.90;;;;;;5145290;27;20472;-27
2020/12/03 06:26:28;;;;;;;45.10;25.30;;;2.70;99.90;;;;;;5124717;27;20491;-27
2020/12/03 06:29:08;;;;;;;45.03;25.13;;;2.70;99.90;;;;;;5121124;27;20534;-26
2020/12/03 06:32:00;;;;;;;47.30;26.93;;;2.80;99.90;;;;;;5119943;27;20775;-28
2020/12/03 06:34:33;;;;;;;47.10;27.20;;;2.80;99.90;;;;;;5127236;27;20461;-28
2020/12/03 06:37:05;;;;;;;44.80;25.10;;;2.80;99.90;;;;;;5120608;27;20983;-27
2020/12/03 06:39:43;;;;;;;44.97;25.37;;;2.80;99.90;;;;;;5119167;27;20469;-27
2020/12/03 06:42:25;;;;;;;42.97;25.70;;;2.80;99.90;;;;;;5114630;27;20442;-27
2020/12/03 06:44:59;;;;;;;43.57;24.83;;;2.80;99.90;;;;;;5133322;27;20464;-27
2020/12/03 06:47:52;;;;;;;48.20;26.97;;;2.80;99.90;;;;;;5125498;27;20453;-28
2020/12/03 06:50:40;;;;;;;48.47;25.90;;;2.80;99.90;;;;;;5114226;27;20430;-28
2020/12/03 06:53:41;;;;;;;40.67;24.90;;;2.80;99.90;;;;;;5114802;27;20461;-27
2020/12/03 06:57:01;;;;;;;45.70;27.30;;;2.80;99.90;;;;;;5116906;27;20487;-28
2020/12/03 06:59:57;;;;;;;42.47;23.83;;;2.80;99.90;;;;;;5027613;28;20527;-27
2020/12/03 07:02:59;;;;;;;47.47;26.00;;;2.80;99.90;;;;;;5023620;28;20441;-27
2020/12/03 07:06:00;;;;;;;44.17;25.50;;;2.90;99.90;;;;;;5022421;28;20465;-28
2020/12/03 07:09:00;;;;;;;44.77;26.60;;;2.80;99.90;;;;;;5005491;28;20457;-27
2020/12/03 07:12:04;;;;;;;43.00;26.20;;;2.60;99.90;;;;;;5016388;28;20707;-28
2020/12/03 07:15:13;;;;;;;50.87;27.73;;;2.50;99.90;;;;;;4978511;28;20464;-27
2020/12/03 07:18:22;;;;;;;41.67;26.27;;;2.60;99.90;;;;;;5020320;28;20458;-27
2020/12/03 07:21:37;;;;;;;47.60;27.80;;;2.40;99.90;;;;;;5008124;28;20442;-27
2020/12/03 07:24:07;;;;;;;46.60;25.90;;;2.50;99.90;;;;;;5005908;28;20463;-26
2020/12/03 07:27:17;;;;;;;45.23;25.17;;;2.50;99.90;;;;;;5004601;28;20446;-27
2020/12/03 07:29:55;;;;;;;53.10;28.13;;;2.60;99.90;;;;;;5000350;27;20673;-27
2020/12/03 07:32:47;;;;;;;50.27;25.33;;;2.70;99.90;;;;;;5108887;27;20446;-26
2020/12/03 07:35:30;;;;;;;55.77;29.97;;;2.80;99.90;;;;;;5111982;27;20441;-28
2020/12/03 07:40:35;;;;;;;51.70;27.93;;;2.90;99.90;;;;;;5110507;27;21064;-27
2020/12/03 07:43:06;;;;;;;45.00;26.60;;;2.90;99.90;;;;;;5132154;27;20872;-27
2020/12/03 07:45:43;;;;;;;47.80;27.40;;;3.00;99.90;;;;;;5121234;27;20428;-27
2020/12/03 07:48:18;;;;;;;49.20;29.50;;;3.10;99.90;;;;;;5115833;27;20444;-25
2020/12/03 07:51:06;;;;;;;54.00;29.23;;;3.10;99.90;;;;;;5115897;27;20720;-26
2020/12/03 07:53:33;;;;;;;48.03;26.60;;;3.20;99.90;;;;;;5118298;27;20457;-26
2020/12/03 07:56:31;;;;;;;47.00;28.50;;;3.20;99.90;;;;;;5109565;27;21327;-26
2020/12/03 07:59:26;;;;;;;53.67;26.73;;;3.20;99.90;;;;;;5109894;27;20450;-26
2020/12/03 08:01:55;;;;;;;49.60;27.93;;;3.20;99.90;;;;;;5101139;27;20445;-26
2020/12/03 08:04:28;;;;;;;50.37;29.50;;;3.20;99.90;;;;;;5111857;27;20753;-26
2020/12/03 08:07:21;;;;;;;44.27;25.20;;;3.20;99.90;;;;;;5120754;27;20444;-26
2020/12/03 08:09:48;;;;;;;42.40;26.70;;;3.30;99.90;;;;;;5112970;27;20605;-26
2020/12/03 08:12:19;;;;;;;42.30;24.83;;;3.30;99.90;;;;;;5112534;27;20448;-26
2020/12/03 08:14:48;;;;;;;50.47;28.33;;;3.30;99.90;;;;;;5120115;27;20442;-26
2020/12/03 08:17:56;;;;;;;46.67;28.73;;;3.40;99.90;;;;;;5116110;27;20476;-25
2020/12/03 08:20:26;;;;;;;73.20;35.50;;;3.40;99.90;;;;;;5105819;27;20481;-25
2020/12/03 08:22:55;;;;;;;69.20;38.43;;;3.40;99.90;;;;;;5113249;27;20486;-26
2020/12/03 08:25:27;;;;;;;72.57;37.23;;;3.40;99.90;;;;;;5111695;27;20709;-26
2020/12/03 08:28:00;;;;;;;68.60;37.50;;;3.30;99.90;;;;;;5112724;27;20453;-25
2020/12/03 08:30:40;;;;;;;67.97;34.90;;;3.30;99.90;;;;;;5109600;27;21086;-26
2020/12/03 08:33:15;;;;;;;67.90;36.70;;;3.50;99.90;;;;;;5107890;27;20449;-25
2020/12/03 08:35:50;;;;;;;57.87;32.53;;;3.60;99.90;;;;;;5111499;27;20424;-26
2020/12/03 08:38:20;;;;;;;57.20;31.23;;;3.70;99.90;;;;;;5105366;27;20447;-26
2020/12/03 08:40:48;;;;;;;56.40;31.10;;;3.70;99.90;;;;;;5110769;27;20460;-26
2020/12/03 08:43:17;;;;;;;52.67;29.80;;;3.80;99.90;;;;;;5109793;27;20610;-26
2020/12/03 08:45:59;;;;;;;49.90;29.87;;;3.80;99.90;;;;;;5087451;27;20439;-26
2020/12/03 08:48:30;;;;;;;52.83;29.00;;;3.90;99.90;;;;;;5088459;27;20441;-26
2020/12/03 08:50:59;;;;;;;52.30;30.47;;;4.00;99.90;;;;;;5093044;27;20895;-26
2020/12/03 08:53:29;;;;;;;53.07;32.40;;;4.00;99.90;;;;;;5091612;27;20553;-26
2020/12/03 08:56:05;;;;;;;51.87;29.70;;;3.90;99.90;;;;;;5082965;28;20466;-26
2020/12/03 08:58:37;;;;;;;47.13;29.60;;;3.70;99.90;;;;;;5086790;27;20577;-26
2020/12/03 09:01:07;;;;;;;48.33;29.70;;;3.60;99.90;;;;;;5083458;28;20548;-26
2020/12/03 09:03:37;;;;;;;44.40;28.90;;;3.50;99.90;;;;;;5087545;27;20455;-26
2020/12/03 09:06:07;;;;;;;53.63;34.90;;;3.50;99.90;;;;;;5089836;27;20513;-26
2020/12/03 09:08:34;;;;;;;51.13;32.53;;;3.70;99.90;;;;;;5084826;27;20368;-26
2020/12/03 09:11:01;;;;;;;53.90;33.67;;;3.90;99.90;;;;;;5103230;27;20442;-26
2020/12/03 09:13:29;;;;;;;49.67;31.13;;;4.00;99.90;;;;;;5098053;27;20476;-25
2020/12/03 09:15:59;;;;;;;46.97;28.47;;;4.20;99.90;;;;;;5083030;28;20463;-25
2020/12/03 09:18:27;;;;;;;42.70;24.47;;;4.30;99.90;;;;;;5102634;27;20930;-26
2020/12/03 09:20:55;;;;;;;40.60;24.63;;;4.50;99.90;;;;;;5104530;27;20851;-26
2020/12/03 09:23:26;;;;;;;38.63;24.67;;;4.50;99.90;;;;;;5087643;27;20537;-26
2020/12/03 09:25:53;;;;;;;33.00;22.33;;;4.60;99.90;;;;;;5097376;27;20438;-26
2020/12/03 09:28:20;;;;;;;34.47;20.03;;;4.70;99.90;;;;;;5103577;27;20438;-26
2020/12/03 09:30:48;;;;;;;28.17;20.20;;;4.70;99.90;;;;;;5104956;27;20770;-27
2020/12/03 09:33:19;;;;;;;26.13;21.00;;;4.80;99.90;;;;;;5098681;27;20756;-26
2020/12/03 09:35:48;;;;;;;25.03;22.33;;;4.80;99.90;;;;;;5092245;27;21392;-26
2020/12/03 09:38:19;;;;;;;23.83;18.33;;;4.90;99.90;;;;;;5114358;27;20897;-28
2020/12/03 09:40:48;;;;;;;21.40;16.80;;;5.00;99.90;;;;;;5123353;27;20662;-28
2020/12/03 09:43:19;;;;;;;20.67;16.40;;;5.10;99.90;;;;;;5123227;27;20747;-27
2020/12/03 09:45:51;;;;;;;21.90;15.93;;;5.20;99.90;;;;;;5123639;27;21176;-26
2020/12/03 09:48:18;;;;;;;27.40;18.67;;;5.30;99.90;;;;;;5122624;27;20861;-27
2020/12/03 09:50:49;;;;;;;22.33;17.47;;;5.40;99.90;;;;;;5121501;27;20986;-26
2020/12/03 09:53:20;;;;;;;20.57;15.03;;;5.40;99.90;;;;;;5117026;27;20569;-28
2020/12/03 09:55:48;;;;;;;23.40;19.13;;;5.50;99.90;;;;;;5079283;27;20458;-26
2020/12/03 09:58:23;;;;;;;20.70;17.10;;;5.60;99.90;;;;;;5102882;27;20449;-26
2020/12/03 10:07:43;;;;;;;18.47;14.27;;;5.80;99.90;;;;;;5093871;27;20568;-26
2020/12/03 10:10:21;;;;;;;19.97;17.83;;;5.80;99.90;;;;;;5087483;27;20464;-28
2020/12/03 10:13:33;;;;;;;22.17;18.23;;;5.70;99.90;;;;;;5118631;27;20433;-27
2020/12/03 10:16:04;;;;;;;30.93;25.80;;;5.70;99.90;;;;;;5096525;27;20474;-26
2020/12/03 10:18:40;;;;;;;21.73;18.37;;;5.60;99.90;;;;;;5108915;27;20448;-28
2020/12/03 10:21:08;;;;;;;21.97;19.53;;;5.50;99.90;;;;;;5101711;27;20446;-26
2020/12/03 10:23:43;;;;;;;22.87;19.43;;;5.40;99.90;;;;;;5103953;27;20450;-26
2020/12/03 10:26:31;;;;;;;17.87;16.03;;;5.40;99.90;;;;;;5103680;27;21034;-26
2020/12/03 10:29:13;;;;;;;20.33;17.70;;;5.40;99.90;;;;;;5102024;27;20486;-27
2020/12/03 10:31:44;;;;;;;19.90;16.50;;;5.40;99.90;;;;;;5100572;27;20438;-26
2020/12/03 10:34:13;;;;;;;20.03;15.60;;;5.40;99.90;;;;;;5102599;27;20448;-26
2020/12/03 10:36:50;;;;;;;20.97;16.67;;;5.40;99.90;;;;;;5106638;27;20505;-26
2020/12/03 10:39:18;;;;;;;15.70;14.07;;;5.40;99.90;;;;;;5110965;27;20500;-26
2020/12/03 10:42:00;;;;;;;20.07;15.70;;;5.50;99.90;;;;;;5103913;27;20450;-25
2020/12/03 10:44:28;;;;;;;22.73;17.90;;;5.50;99.90;;;;;;5081773;28;20450;-26
2020/12/03 10:47:01;;;;;;;19.63;16.50;;;5.60;99.90;;;;;;5079322;27;20461;-27
2020/12/03 10:49:34;;;;;;;21.87;17.80;;;5.70;99.90;;;;;;5085811;27;20437;-26
2020/12/03 10:52:03;;;;;;;21.50;18.53;;;5.80;99.90;;;;;;5090773;27;20439;-26
2020/12/03 10:54:32;;;;;;;18.17;15.40;;;5.90;99.90;;;;;;5087870;27;20448;-27
2020/12/03 10:57:13;;;;;;;18.90;17.00;;;6.00;99.90;;;;;;5098715;27;20469;-27
2020/12/03 10:59:41;;;;;;;19.43;17.13;;;6.00;99.90;;;;;;5101028;27;20725;-26
2020/12/03 11:02:27;;;;;;;18.97;14.60;;;6.20;99.90;;;;;;5084828;27;20447;-26
2020/12/03 11:04:55;;;;;;;16.40;13.93;;;6.20;99.90;;;;;;5091437;27;20497;-29
2020/12/03 11:07:23;;;;;;;16.07;14.47;;;6.30;99.90;;;;;;5095019;27;20594;-26
2020/12/03 11:09:57;;;;;;;19.10;17.10;;;6.20;99.90;;;;;;5096174;28;20449;-27
2020/12/03 11:12:29;;;;;;;22.37;17.07;;;6.30;99.90;;;;;;5080062;28;20451;-26
2020/12/03 11:15:01;;;;;;;20.97;17.17;;;6.50;99.90;;;;;;5093875;28;20441;-27
2020/12/03 11:18:03;;;;;;;17.77;15.50;;;6.60;99.90;;;;;;5084589;28;20457;-26
2020/12/03 11:20:33;;;;;;;15.60;13.80;;;6.70;99.90;;;;;;5070463;28;21101;-26
2020/12/03 11:23:06;;;;;;;21.27;15.43;;;6.80;99.90;;;;;;5059596;28;20444;-27
2020/12/03 11:25:35;;;;;;;14.20;12.70;;;6.80;99.90;;;;;;5090991;28;20533;-28
2020/12/03 11:28:35;;;;;;;14.30;12.90;;;6.80;99.90;;;;;;5086617;28;20442;-26
2020/12/03 11:31:05;;;;;;;14.83;13.07;;;6.80;99.90;;;;;;5069275;28;21414;-26
2020/12/03 11:33:34;;;;;;;15.50;13.50;;;6.70;99.90;;;;;;5090750;28;20458;-26
2020/12/03 11:36:10;;;;;;;15.23;13.57;;;6.70;99.90;;;;;;5096211;28;20445;-26
2020/12/03 11:38:38;;;;;;;14.07;12.57;;;6.60;99.90;;;;;;5066451;28;21091;-26
2020/12/03 11:41:09;;;;;;;13.10;11.77;;;6.50;99.90;;;;;;5082310;28;20461;-27
2020/12/03 11:49:27;;;;;;;13.73;12.30;;;6.20;99.90;;;;;;5094122;28;20442;-27
2020/12/03 11:51:56;;;;;;;13.33;11.93;;;6.10;99.90;;;;;;5074391;28;20784;-27
2020/12/03 11:54:28;;;;;;;15.70;13.13;;;6.00;99.90;;;;;;5094733;28;20669;-27
2020/12/03 11:56:56;;;;;;;12.07;10.87;;;6.00;99.90;;;;;;5080075;28;20482;-27
2020/12/03 11:59:32;;;;;;;12.90;11.70;;;6.00;99.90;;;;;;5061995;28;20629;-27
2020/12/03 12:02:02;;;;;;;15.10;11.93;;;6.00;99.90;;;;;;5080626;28;20558;-28
2020/12/03 12:04:38;;;;;;;13.27;11.93;;;5.90;99.90;;;;;;5091671;27;20475;-27
2020/12/03 12:07:21;;;;;;;13.60;12.00;;;5.90;99.90;;;;;;5100791;27;20437;-27
2020/12/03 12:09:55;;;;;;;18.03;11.90;;;5.80;99.90;;;;;;5103369;27;20703;-27
2020/12/03 12:12:24;;;;;;;13.40;11.97;;;5.90;99.90;;;;;;5068655;27;20469;-27
2020/12/03 12:14:53;;;;;;;11.37;10.17;;;6.10;99.90;;;;;;5083933;28;20455;-27
2020/12/03 12:17:21;;;;;;;11.27;10.20;;;6.30;99.90;;;;;;5066102;28;20794;-26
2020/12/03 12:19:50;;;;;;;16.37;11.20;;;6.50;99.90;;;;;;5083962;28;20454;-28
2020/12/03 12:22:18;;;;;;;14.00;11.60;;;6.70;99.90;;;;;;5083980;27;20443;-27
2020/12/03 12:24:46;;;;;;;13.63;12.23;;;6.80;99.90;;;;;;5091578;27;21019;-26
2020/12/03 12:27:14;;;;;;;15.50;13.40;;;6.60;99.90;;;;;;5104123;27;20454;-28
2020/12/03 12:29:43;;;;;;;13.97;12.20;;;6.60;99.90;;;;;;5128651;27;20433;-28
2020/12/03 12:32:17;;;;;;;13.07;11.73;;;6.60;99.90;;;;;;5110096;27;20441;-28
2020/12/03 12:34:48;;;;;;;13.67;11.97;;;6.80;99.90;;;;;;5103285;27;20447;-28
2020/12/03 12:37:23;;;;;;;13.80;12.40;;;6.80;99.90;;;;;;5123895;27;20468;-28
2020/12/03 12:39:52;;;;;;;12.83;10.83;;;6.90;99.90;;;;;;5125613;27;20459;-28
2020/12/03 12:42:26;;;;;;;14.53;13.03;;;6.90;99.90;;;;;;5107632;27;20935;-27
2020/12/03 12:44:53;;;;;;;15.90;14.20;;;6.90;99.90;;;;;;5127710;27;20908;-27
2020/12/03 12:47:27;;;;;;;16.57;14.77;;;7.00;99.90;;;;;;5124303;27;20444;-28
2020/12/03 12:49:54;;;;;;;13.67;12.27;;;6.90;99.90;;;;;;5118533;27;20448;-27
2020/12/03 12:52:22;;;;;;;13.80;12.40;;;6.80;99.90;;;;;;5104021;27;20465;-27
2020/12/03 12:54:49;;;;;;;13.60;11.70;;;6.90;99.90;;;;;;5128888;27;20470;-27
2020/12/03 12:57:22;;;;;;;13.60;11.90;;;6.90;99.90;;;;;;5106123;27;20470;-29
2020/12/03 12:59:48;;;;;;;14.00;12.50;;;6.80;99.90;;;;;;5100668;27;20449;-27
2020/12/03 13:02:19;;;;;;;16.43;13.83;;;6.80;99.90;;;;;;5105305;27;20437;-28
2020/12/03 13:04:48;;;;;;;14.63;12.13;;;6.80;99.90;;;;;;5117420;27;20437;-28
2020/12/03 13:07:15;;;;;;;13.40;12.00;;;6.80;99.90;;;;;;5115301;27;20904;-28
2020/12/03 13:09:42;;;;;;;14.23;12.70;;;6.70;99.90;;;;;;5125742;27;20729;-27
2020/12/03 13:12:10;;;;;;;12.20;10.87;;;6.60;99.90;;;;;;5118759;27;20456;-27
2020/12/03 13:14:37;;;;;;;14.33;12.73;;;6.60;99.90;;;;;;5121835;27;20871;-28
2020/12/03 13:17:04;;;;;;;13.47;12.00;;;6.60;99.90;;;;;;5126651;27;20465;-27
2020/12/03 13:19:30;;;;;;;14.17;12.53;;;6.60;99.90;;;;;;5077190;28;20504;-27
2020/12/03 13:21:59;;;;;;;15.40;12.97;;;6.60;99.90;;;;;;5067372;28;20452;-27